Time;durP1;ratioP1;P1;durP2;ratioP2;P2;SDS_P1;SDS_P2;PMS_P1;PMS_P2;Temp;Humidity;BMP_temperature;BMP_pressure;BME280_temperature;BME280_humidity;BME280_pressure;Samples;Min_cycle;Max_cycle;Signal;HPM_P1;HPM_P2
2022/08/02 00:00:42;;;;;;;2.80;1.43;;;15.40;99.90;;;;;;5073211;28;20245;-41
2022/08/02 00:03:07;;;;;;;4.17;1.83;;;15.40;99.90;;;;;;5073732;28;20179;-40
2022/08/02 00:05:33;;;;;;;3.10;1.70;;;15.30;99.90;;;;;;5073374;28;20199;-41
2022/08/02 00:07:59;;;;;;;3.57;1.63;;;15.20;99.90;;;;;;5073414;28;20270;-41
2022/08/02 00:10:24;;;;;;;2.00;1.80;;;15.10;99.90;;;;;;5073084;28;20195;-39
2022/08/02 00:12:50;;;;;;;4.73;1.90;;;15.10;99.90;;;;;;5073368;28;20229;-41
2022/08/02 00:15:15;;;;;;;2.33;1.60;;;15.10;99.90;;;;;;5075726;28;20184;-41
2022/08/02 00:17:41;;;;;;;4.80;2.00;;;15.00;99.90;;;;;;5077428;28;20164;-39
2022/08/02 00:20:07;;;;;;;2.30;1.93;;;15.00;99.90;;;;;;5077490;28;20202;-39
2022/08/02 00:22:32;;;;;;;3.93;2.13;;;15.00;99.90;;;;;;5077319;28;20225;-38
2022/08/02 00:24:58;;;;;;;4.33;2.27;;;15.00;99.90;;;;;;5077173;28;20187;-39
2022/08/02 00:27:24;;;;;;;4.40;2.47;;;15.00;99.90;;;;;;5077015;28;20167;-40
2022/08/02 00:29:50;;;;;;;3.10;2.10;;;14.90;99.90;;;;;;5077247;28;20195;-39
2022/08/02 00:32:16;;;;;;;4.83;2.20;;;14.90;99.90;;;;;;5076713;28;20199;-40
2022/08/02 00:34:42;;;;;;;3.03;2.40;;;14.80;99.90;;;;;;5076880;28;20191;-39
2022/08/02 00:37:07;;;;;;;5.47;2.40;;;14.80;99.90;;;;;;5077033;28;20662;-39
2022/08/02 00:39:33;;;;;;;3.10;2.53;;;14.80;99.90;;;;;;5076709;28;20643;-38
2022/08/02 00:41:58;;;;;;;5.93;2.47;;;14.80;99.90;;;;;;5075609;28;20607;-40
2022/08/02 00:44:24;;;;;;;2.63;2.10;;;14.80;99.90;;;;;;5076988;28;20228;-39
2022/08/02 00:46:50;;;;;;;4.23;2.57;;;14.80;99.90;;;;;;5077066;28;20203;-41
2022/08/02 00:49:15;;;;;;;2.73;2.40;;;14.80;99.90;;;;;;5076656;28;20176;-39
2022/08/02 00:51:41;;;;;;;4.80;2.30;;;14.80;99.90;;;;;;5076505;28;20253;-41
2022/08/02 00:54:07;;;;;;;4.57;2.30;;;14.80;99.90;;;;;;5076458;28;20190;-41
2022/08/02 00:56:33;;;;;;;4.80;2.50;;;14.80;99.90;;;;;;5076703;28;20573;-38
2022/08/02 00:58:59;;;;;;;2.83;2.43;;;14.70;99.90;;;;;;5075174;28;20636;-39
2022/08/02 01:01:37;;;;;;;4.87;2.53;;;14.80;99.90;;;;;;5076386;28;20199;-40
2022/08/02 01:04:08;;;;;;;5.30;2.37;;;14.80;99.90;;;;;;5076800;28;20171;-40
2022/08/02 01:06:34;;;;;;;3.87;2.67;;;14.80;99.90;;;;;;5076326;28;20222;-38
2022/08/02 01:09:00;;;;;;;3.73;2.43;;;14.70;99.90;;;;;;5076825;28;20203;-41
2022/08/02 01:11:27;;;;;;;3.77;2.60;;;14.80;99.90;;;;;;5076134;28;20192;-41
2022/08/02 01:13:57;;;;;;;4.70;2.30;;;14.80;99.90;;;;;;5076162;28;20180;-39
2022/08/02 01:16:27;;;;;;;2.97;2.30;;;14.80;99.90;;;;;;5075425;28;20576;-38
2022/08/02 01:19:00;;;;;;;3.87;2.30;;;14.80;99.90;;;;;;5075947;28;20190;-40
2022/08/02 01:21:34;;;;;;;6.40;2.60;;;14.80;99.90;;;;;;5075991;28;20206;-41
2022/08/02 01:24:23;;;;;;;3.90;2.60;;;14.80;99.90;;;;;;5076229;28;20163;-40
2022/08/02 01:27:19;;;;;;;4.67;3.00;;;14.80;99.90;;;;;;5075964;28;20216;-40
2022/08/02 01:29:45;;;;;;;5.27;2.33;;;14.80;99.90;;;;;;5075719;28;20168;-39
2022/08/02 01:32:17;;;;;;;4.93;2.50;;;14.80;99.90;;;;;;5075579;28;20176;-39
2022/08/02 01:34:49;;;;;;;7.07;2.30;;;14.80;99.90;;;;;;5075990;28;20183;-40
2022/08/02 01:37:19;;;;;;;2.80;2.10;;;14.80;99.90;;;;;;5075707;28;20171;-40
2022/08/02 01:39:47;;;;;;;2.63;1.80;;;14.80;99.90;;;;;;5075545;28;20223;-38
2022/08/02 01:42:14;;;;;;;3.47;2.40;;;14.70;99.90;;;;;;5075577;28;20175;-38
2022/08/02 01:44:42;;;;;;;4.10;2.20;;;14.70;99.90;;;;;;5075533;28;20679;-39
2022/08/02 01:47:16;;;;;;;3.73;2.00;;;14.70;99.90;;;;;;5075717;28;20261;-38
2022/08/02 01:49:46;;;;;;;3.10;1.97;;;14.60;99.90;;;;;;5075719;28;20205;-40
2022/08/02 01:52:20;;;;;;;2.33;1.73;;;14.60;99.90;;;;;;5075413;28;20635;-40
2022/08/02 01:55:02;;;;;;;3.03;2.20;;;14.60;99.90;;;;;;5075634;28;20173;-40
2022/08/02 01:57:35;;;;;;;5.07;1.93;;;14.60;99.90;;;;;;5074083;28;20648;-39
2022/08/02 02:00:06;;;;;;;3.83;2.10;;;14.60;99.90;;;;;;5075645;28;20678;-39
2022/08/02 02:02:33;;;;;;;3.57;2.00;;;14.50;99.90;;;;;;5075452;28;20176;-41
2022/08/02 02:05:00;;;;;;;3.50;2.70;;;14.50;99.90;;;;;;5075681;28;20178;-39
2022/08/02 02:07:28;;;;;;;4.33;2.97;;;14.50;99.90;;;;;;5075435;28;20258;-38
2022/08/02 02:09:55;;;;;;;3.67;2.70;;;14.50;99.90;;;;;;5075154;28;20191;-40
2022/08/02 02:12:23;;;;;;;3.40;2.50;;;14.50;99.90;;;;;;5075007;28;20168;-40
2022/08/02 02:14:49;;;;;;;5.67;3.00;;;14.50;99.90;;;;;;5075237;28;20171;-40
2022/08/02 02:17:17;;;;;;;2.57;2.33;;;14.50;99.90;;;;;;5075176;28;20179;-38
2022/08/02 02:19:44;;;;;;;3.93;2.90;;;14.40;99.90;;;;;;5074981;28;20521;-39
2022/08/02 02:22:10;;;;;;;4.70;2.43;;;14.40;99.90;;;;;;5073496;28;20180;-39
2022/08/02 02:24:36;;;;;;;3.87;2.40;;;14.40;99.90;;;;;;5075078;28;20237;-42
2022/08/02 02:27:03;;;;;;;2.93;2.00;;;14.30;99.90;;;;;;5075224;28;20195;-41
2022/08/02 02:29:30;;;;;;;3.67;2.37;;;14.30;99.90;;;;;;5074450;28;20187;-41
2022/08/02 02:31:58;;;;;;;3.70;2.73;;;14.30;99.90;;;;;;5074836;28;20184;-40
2022/08/02 02:34:34;;;;;;;3.43;2.60;;;14.20;99.90;;;;;;5074496;28;20198;-41
2022/08/02 02:37:03;;;;;;;2.80;2.50;;;14.20;99.90;;;;;;5074311;28;20194;-39
2022/08/02 02:39:31;;;;;;;4.00;2.50;;;14.20;99.90;;;;;;5074442;28;20168;-39
2022/08/02 02:42:01;;;;;;;5.53;2.47;;;14.20;99.90;;;;;;5074400;28;20183;-40
2022/08/02 02:44:29;;;;;;;3.93;2.23;;;14.20;99.90;;;;;;5075097;28;20217;-41
2022/08/02 02:46:56;;;;;;;4.40;2.77;;;14.20;99.90;;;;;;5074472;28;20191;-40
2022/08/02 02:49:24;;;;;;;4.83;2.80;;;14.10;99.90;;;;;;5074879;28;20175;-40
2022/08/02 02:51:50;;;;;;;4.90;2.73;;;14.10;99.90;;;;;;5074606;28;20222;-40
2022/08/02 02:54:17;;;;;;;5.13;2.70;;;14.10;99.90;;;;;;5074647;28;20183;-38
2022/08/02 02:56:45;;;;;;;3.73;2.67;;;14.00;99.90;;;;;;5074192;28;20176;-40
2022/08/02 02:59:13;;;;;;;3.00;2.30;;;14.00;99.90;;;;;;5074229;28;20649;-39
2022/08/02 03:01:39;;;;;;;3.77;2.67;;;14.00;99.90;;;;;;5074012;28;20187;-39
2022/08/02 03:04:06;;;;;;;5.33;2.63;;;14.00;99.90;;;;;;5073982;28;20176;-41
2022/08/02 03:06:34;;;;;;;4.57;2.77;;;13.90;99.90;;;;;;5073889;28;20247;-40
2022/08/02 03:09:00;;;;;;;2.73;2.40;;;13.90;99.90;;;;;;5074291;28;20182;-38
2022/08/02 03:11:30;;;;;;;4.00;2.70;;;13.90;99.90;;;;;;5073868;28;20191;-38
2022/08/02 03:14:02;;;;;;;5.47;3.03;;;13.80;99.90;;;;;;5073852;28;20171;-40
2022/08/02 03:16:28;;;;;;;3.93;2.70;;;13.80;99.90;;;;;;5072577;28;20667;-40
2022/08/02 03:18:55;;;;;;;4.30;2.70;;;13.80;99.90;;;;;;5074046;28;20226;-40
2022/08/02 03:21:21;;;;;;;3.43;2.70;;;13.80;99.90;;;;;;5072390;28;20261;-38
2022/08/02 03:23:48;;;;;;;3.57;2.70;;;13.70;99.90;;;;;;5074039;28;20175;-41
2022/08/02 03:26:14;;;;;;;5.63;3.47;;;13.70;99.90;;;;;;5073910;28;20195;-39
2022/08/02 03:28:40;;;;;;;5.33;2.93;;;13.70;99.90;;;;;;5073559;28;20172;-39
2022/08/02 03:31:06;;;;;;;5.63;3.50;;;13.70;99.90;;;;;;5073801;28;20199;-40
2022/08/02 03:33:33;;;;;;;3.50;2.70;;;13.70;99.90;;;;;;5073531;28;20222;-39
2022/08/02 03:36:05;;;;;;;5.67;2.67;;;13.70;99.90;;;;;;5073943;28;20630;-39
2022/08/02 03:38:32;;;;;;;7.30;3.17;;;13.70;99.90;;;;;;5073823;28;20182;-39
2022/08/02 03:41:00;;;;;;;5.47;3.40;;;13.70;99.90;;;;;;5073404;28;20202;-38
2022/08/02 03:43:27;;;;;;;5.93;3.20;;;13.70;99.90;;;;;;5073465;28;20183;-38
2022/08/02 03:45:53;;;;;;;3.73;2.93;;;13.70;99.90;;;;;;5073505;28;20238;-39
2022/08/02 03:48:19;;;;;;;8.87;3.17;;;13.70;99.90;;;;;;5072908;28;20214;-40
2022/08/02 03:50:47;;;;;;;6.00;2.83;;;13.70;99.90;;;;;;5073214;28;20187;-40
2022/08/02 03:53:15;;;;;;;5.87;2.80;;;13.70;99.90;;;;;;5072450;28;20633;-40
2022/08/02 03:55:41;;;;;;;4.20;2.63;;;13.60;99.90;;;;;;5073583;28;20541;-40
2022/08/02 03:58:07;;;;;;;7.13;3.00;;;13.70;99.90;;;;;;5073344;28;20206;-40
2022/08/02 04:00:33;;;;;;;4.90;3.40;;;13.60;99.90;;;;;;5073259;28;20199;-43
2022/08/02 04:02:59;;;;;;;6.00;3.20;;;13.60;99.90;;;;;;5073496;28;20555;-40
2022/08/02 04:05:25;;;;;;;4.43;3.20;;;13.60;99.90;;;;;;5073456;28;20188;-39
2022/08/02 04:07:50;;;;;;;6.47;3.30;;;13.60;99.90;;;;;;5073269;28;20180;-40
2022/08/02 04:10:16;;;;;;;3.53;3.00;;;13.60;99.90;;;;;;5073688;28;20224;-40
2022/08/02 04:12:42;;;;;;;10.07;3.47;;;13.50;99.90;;;;;;5073401;28;20176;-39
2022/08/02 04:15:11;;;;;;;7.67;3.00;;;13.50;99.90;;;;;;5073144;28;20188;-39
2022/08/02 04:17:40;;;;;;;5.77;2.87;;;13.50;99.90;;;;;;5073104;28;20187;-42
2022/08/02 04:20:21;;;;;;;4.03;3.10;;;13.50;99.90;;;;;;5073275;28;20191;-39
2022/08/02 04:23:22;;;;;;;3.50;3.03;;;13.50;99.90;;;;;;5073377;28;20162;-39
2022/08/02 04:25:48;;;;;;;5.00;3.10;;;13.40;99.90;;;;;;5050062;28;20226;-38
2022/08/02 04:28:15;;;;;;;4.90;3.17;;;13.50;99.90;;;;;;5073194;28;20175;-40
2022/08/02 04:30:42;;;;;;;4.57;2.87;;;13.50;99.90;;;;;;5073462;28;20204;-38
2022/08/02 04:33:07;;;;;;;4.80;3.30;;;13.40;99.90;;;;;;5072920;28;20594;-39
2022/08/02 04:35:33;;;;;;;5.20;2.97;;;13.50;99.90;;;;;;5072923;28;20196;-40
2022/08/02 04:38:00;;;;;;;8.23;3.10;;;13.50;99.90;;;;;;5072912;28;20647;-40
2022/08/02 04:40:25;;;;;;;9.73;3.43;;;13.50;99.90;;;;;;5073209;28;20207;-40
2022/08/02 04:42:51;;;;;;;8.97;3.00;;;13.50;99.90;;;;;;5073707;28;20596;-41
2022/08/02 04:45:17;;;;;;;8.23;3.60;;;13.50;99.90;;;;;;5073122;28;20207;-40
2022/08/02 04:47:43;;;;;;;7.60;3.07;;;13.60;99.90;;;;;;5072858;28;20172;-40
2022/08/02 04:50:09;;;;;;;7.77;3.20;;;13.60;99.90;;;;;;5072970;28;20544;-39
2022/08/02 04:52:34;;;;;;;3.73;3.30;;;13.70;99.90;;;;;;5072995;28;20179;-40
2022/08/02 04:55:00;;;;;;;7.90;3.60;;;13.70;99.90;;;;;;5072790;28;20172;-40
2022/08/02 05:00:10;;;;;;;6.00;3.87;;;13.90;99.90;;;;;;5073659;28;20237;-40
2022/08/02 05:02:36;;;;;;;6.73;3.50;;;13.90;99.90;;;;;;5076593;28;20180;-41
2022/08/02 05:05:02;;;;;;;6.17;3.63;;;14.00;99.90;;;;;;5076198;28;20191;-42
2022/08/02 05:07:28;;;;;;;8.13;3.53;;;14.10;99.90;;;;;;5076454;28;20202;-40
2022/08/02 05:09:53;;;;;;;7.83;3.73;;;14.20;99.90;;;;;;5076175;28;20195;-41
2022/08/02 05:12:23;;;;;;;9.23;3.43;;;14.30;99.90;;;;;;5076120;28;20188;-39
2022/08/02 05:14:48;;;;;;;6.87;4.20;;;14.40;99.90;;;;;;5076887;28;20528;-41
2022/08/02 05:17:14;;;;;;;10.57;4.20;;;14.50;99.90;;;;;;5076058;28;20186;-41
2022/08/02 05:19:40;;;;;;;7.37;4.13;;;14.60;99.90;;;;;;5075915;28;20215;-39
2022/08/02 05:22:06;;;;;;;10.67;4.03;;;14.80;99.90;;;;;;5076124;28;20639;-38
2022/08/02 05:24:32;;;;;;;9.33;3.90;;;14.90;99.90;;;;;;5076255;28;20211;-38
2022/08/02 05:26:57;;;;;;;11.03;4.80;;;15.00;99.90;;;;;;5075846;28;20205;-39
2022/08/02 05:29:23;;;;;;;11.57;4.57;;;15.10;99.90;;;;;;5076297;28;20182;-37
2022/08/02 05:31:48;;;;;;;10.27;4.50;;;15.20;99.90;;;;;;5075701;28;20227;-39
2022/08/02 05:34:14;;;;;;;17.93;4.63;;;15.30;99.90;;;;;;5075698;28;20226;-37
2022/08/02 05:36:40;;;;;;;10.87;4.47;;;15.40;99.90;;;;;;5076524;28;20234;-38
2022/08/02 05:39:05;;;;;;;11.27;4.30;;;15.50;99.90;;;;;;5075775;28;20595;-37
2022/08/02 05:41:31;;;;;;;11.37;4.90;;;15.60;99.90;;;;;;5075534;28;20677;-38
2022/08/02 05:43:57;;;;;;;12.60;4.53;;;15.60;99.90;;;;;;5075846;28;20653;-40
2022/08/02 05:46:23;;;;;;;10.07;3.97;;;15.70;99.90;;;;;;5074248;28;20344;-37
2022/08/02 05:48:49;;;;;;;12.57;4.43;;;15.80;99.90;;;;;;5075766;28;20190;-37
2022/08/02 05:51:33;;;;;;;11.97;4.70;;;15.80;99.90;;;;;;5075394;28;20194;-38
2022/08/02 05:54:06;;;;;;;7.13;4.20;;;16.00;99.90;;;;;;5075470;28;20165;-41
2022/08/02 05:56:37;;;;;;;9.93;4.13;;;16.00;99.90;;;;;;5075433;28;20175;-39
2022/08/02 05:59:10;;;;;;;8.30;4.63;;;16.10;99.90;;;;;;5075588;28;20163;-38
2022/08/02 06:01:41;;;;;;;7.17;3.77;;;16.30;99.90;;;;;;5075541;28;20200;-40
2022/08/02 06:04:09;;;;;;;6.33;4.20;;;16.40;99.90;;;;;;5075573;28;20168;-39
2022/08/02 06:06:36;;;;;;;9.27;4.47;;;16.50;99.90;;;;;;5074997;28;20211;-38
2022/08/02 06:09:23;;;;;;;7.77;4.50;;;16.60;99.90;;;;;;5075114;28;20179;-38
2022/08/02 06:11:51;;;;;;;8.47;4.13;;;16.70;99.90;;;;;;5074371;28;20203;-39
2022/08/02 06:14:18;;;;;;;9.37;4.13;;;16.90;99.90;;;;;;5075034;28;20175;-38
2022/08/02 06:16:44;;;;;;;4.50;3.37;;;17.00;99.90;;;;;;5075012;28;20266;-39
2022/08/02 06:19:13;;;;;;;6.07;3.87;;;17.20;99.90;;;;;;5074899;28;20187;-39
2022/08/02 06:21:40;;;;;;;5.10;3.47;;;17.30;99.90;;;;;;5073501;28;20284;-40
2022/08/02 06:24:08;;;;;;;9.57;4.03;;;17.50;99.90;;;;;;5074816;28;20236;-37
2022/08/02 06:26:35;;;;;;;7.03;3.33;;;17.60;99.90;;;;;;5073454;28;20225;-38
2022/08/02 06:29:02;;;;;;;5.20;3.37;;;17.80;99.90;;;;;;5075380;28;20186;-43
2022/08/02 06:31:28;;;;;;;9.67;3.53;;;17.90;99.90;;;;;;5074635;28;20575;-45
2022/08/02 06:33:55;;;;;;;8.10;3.40;;;18.10;99.90;;;;;;5074555;28;20274;-44
2022/08/02 06:36:38;;;;;;;9.97;3.50;;;18.30;99.90;;;;;;5074622;28;20188;-43
2022/08/02 06:39:22;;;;;;;10.90;4.00;;;18.60;99.90;;;;;;5074902;28;20167;-44
2022/08/02 06:41:48;;;;;;;10.40;3.60;;;18.80;99.90;;;;;;5074383;28;20654;-44
2022/08/02 06:44:14;;;;;;;8.60;3.73;;;19.00;99.90;;;;;;5074443;28;20207;-45
2022/08/02 06:46:41;;;;;;;5.23;3.53;;;19.30;99.90;;;;;;5074268;28;20294;-46
2022/08/02 06:49:06;;;;;;;9.57;4.40;;;19.50;99.90;;;;;;5074526;28;20580;-45
2022/08/02 06:51:32;;;;;;;12.77;3.63;;;19.70;99.90;;;;;;5074151;28;20219;-46
2022/08/02 06:53:58;;;;;;;6.37;3.50;;;19.90;99.90;;;;;;5074472;28;20259;-46
2022/08/02 06:56:23;;;;;;;4.90;3.53;;;20.20;99.90;;;;;;5074129;28;20229;-45
2022/08/02 06:58:49;;;;;;;10.77;3.50;;;20.40;99.90;;;;;;5074317;28;20188;-44
2022/08/02 07:01:14;;;;;;;6.47;2.93;;;20.60;99.90;;;;;;5074253;28;20206;-45
2022/08/02 07:03:40;;;;;;;6.97;3.30;;;20.90;99.90;;;;;;5074501;28;20191;-45
2022/08/02 07:06:10;;;;;;;11.23;3.80;;;21.10;99.90;;;;;;5073972;28;20218;-45
2022/08/02 07:08:37;;;;;;;12.50;3.80;;;21.40;99.90;;;;;;5072647;28;20711;-45
2022/08/02 07:11:04;;;;;;;12.43;3.53;;;21.60;99.90;;;;;;5074070;28;20195;-46
2022/08/02 07:13:30;;;;;;;11.77;3.33;;;21.80;99.90;;;;;;5073826;28;20646;-45
2022/08/02 07:15:55;;;;;;;6.17;3.10;;;21.90;99.90;;;;;;5074058;28;20180;-45
2022/08/02 07:18:24;;;;;;;4.77;3.07;;;22.10;99.90;;;;;;5074293;28;20168;-47
2022/08/02 07:20:51;;;;;;;9.23;3.33;;;22.40;99.90;;;;;;5073842;28;20203;-45
2022/08/02 07:23:16;;;;;;;7.23;3.87;;;22.60;99.90;;;;;;5073803;28;20175;-46
2022/08/02 07:25:42;;;;;;;6.13;3.67;;;22.80;99.90;;;;;;5074139;28;20205;-46
2022/08/02 07:28:14;;;;;;;7.17;3.30;;;22.90;99.90;;;;;;5073603;28;20210;-46
2022/08/02 07:30:40;;;;;;;5.93;3.40;;;23.10;99.90;;;;;;5073546;28;20266;-45
2022/08/02 07:33:05;;;;;;;4.93;3.20;;;23.30;99.90;;;;;;5073430;28;20257;-47
2022/08/02 07:35:31;;;;;;;3.70;3.10;;;23.50;99.90;;;;;;5073670;28;20180;-46
2022/08/02 07:37:57;;;;;;;4.00;2.77;;;23.60;99.90;;;;;;5073512;28;20180;-44
2022/08/02 07:40:23;;;;;;;5.37;3.10;;;23.80;99.90;;;;;;5073671;28;20210;-44
2022/08/02 07:42:51;;;;;;;5.70;3.50;;;24.00;99.90;;;;;;5073892;28;20194;-44
2022/08/02 07:45:18;;;;;;;3.63;2.90;;;24.10;99.90;;;;;;5073585;28;20231;-43
2022/08/02 07:47:45;;;;;;;6.83;3.87;;;24.30;99.90;;;;;;5073945;28;20214;-44
2022/08/02 07:50:12;;;;;;;6.27;4.00;;;24.50;99.90;;;;;;5073312;28;20187;-43
2022/08/02 07:52:39;;;;;;;6.40;3.33;;;24.70;99.90;;;;;;5073602;28;20211;-45
2022/08/02 07:55:05;;;;;;;6.90;3.63;;;24.80;99.90;;;;;;5073294;28;20172;-43
2022/08/02 07:57:31;;;;;;;3.73;3.43;;;25.00;99.90;;;;;;5073613;28;20182;-44
2022/08/02 07:59:56;;;;;;;8.83;3.13;;;25.20;99.90;;;;;;5073230;28;20565;-44
2022/08/02 08:02:25;;;;;;;4.03;3.13;;;25.30;99.90;;;;;;5073241;28;20175;-44
2022/08/02 08:04:51;;;;;;;4.37;2.60;;;25.50;99.90;;;;;;5073419;28;20582;-43
2022/08/02 08:07:17;;;;;;;5.20;2.67;;;25.50;99.90;;;;;;5073217;28;20236;-43
2022/08/02 08:09:43;;;;;;;4.03;2.20;;;25.60;99.90;;;;;;5073426;28;20179;-46
2022/08/02 08:12:10;;;;;;;3.57;2.40;;;25.70;99.90;;;;;;5073201;28;20175;-47
2022/08/02 08:14:37;;;;;;;3.33;2.63;;;25.80;99.90;;;;;;5073565;28;20245;-46
2022/08/02 08:17:03;;;;;;;4.10;2.20;;;25.90;99.90;;;;;;5073433;28;20187;-46
2022/08/02 08:19:28;;;;;;;2.63;2.07;;;25.90;99.90;;;;;;5073350;28;20262;-47
2022/08/02 08:21:54;;;;;;;2.30;1.70;;;26.00;99.90;;;;;;5073050;28;20214;-46
2022/08/02 08:24:19;;;;;;;3.67;2.10;;;26.10;99.90;;;;;;5073106;28;20182;-45
2022/08/02 08:26:45;;;;;;;3.43;1.67;;;26.30;99.90;;;;;;5072973;28;20199;-46
2022/08/02 08:29:10;;;;;;;2.00;1.80;;;26.30;99.90;;;;;;5072940;28;20180;-46
2022/08/02 08:31:36;;;;;;;2.90;1.70;;;26.40;99.90;;;;;;5073224;28;20635;-46
2022/08/02 08:34:02;;;;;;;3.23;1.80;;;26.30;99.90;;;;;;5072907;28;20197;-48
2022/08/02 08:36:28;;;;;;;3.37;1.80;;;26.20;99.90;;;;;;5075731;28;20184;-46
2022/08/02 08:38:53;;;;;;;3.47;1.90;;;26.20;99.90;;;;;;5076809;28;20175;-47
2022/08/02 08:41:19;;;;;;;3.03;1.90;;;26.30;99.90;;;;;;5076727;28;20607;-47
2022/08/02 08:43:46;;;;;;;2.90;1.87;;;26.30;99.90;;;;;;5076707;28;20176;-47
2022/08/02 08:46:27;;;;;;;2.37;1.57;;;26.50;99.90;;;;;;5076571;28;20195;-47
2022/08/02 08:48:59;;;;;;;4.87;2.10;;;26.60;99.90;;;;;;5076920;28;20206;-46
2022/08/02 08:51:30;;;;;;;3.67;1.97;;;26.70;99.90;;;;;;5076589;28;20199;-46
2022/08/02 08:54:00;;;;;;;2.17;1.97;;;26.70;99.90;;;;;;5076817;28;20186;-46
2022/08/02 08:56:32;;;;;;;1.87;1.77;;;26.70;99.90;;;;;;5075258;28;20546;-47
2022/08/02 08:58:57;;;;;;;2.17;1.87;;;26.80;99.90;;;;;;5076719;28;20167;-47
2022/08/02 09:01:23;;;;;;;1.70;1.60;;;26.80;99.90;;;;;;5076306;28;20195;-46
2022/08/02 09:03:48;;;;;;;4.50;2.03;;;27.00;99.90;;;;;;5076840;28;20171;-46
2022/08/02 09:06:14;;;;;;;3.37;1.80;;;27.10;99.90;;;;;;5076155;28;20199;-47
2022/08/02 09:08:40;;;;;;;3.93;2.20;;;27.10;99.90;;;;;;5076497;28;20266;-47
2022/08/02 09:11:31;;;;;;;6.20;2.07;;;27.20;99.90;;;;;;5076242;28;20230;-47
2022/08/02 09:13:59;;;;;;;2.83;1.70;;;27.30;99.90;;;;;;5074161;28;20211;-45
2022/08/02 09:16:37;;;;;;;2.97;2.00;;;27.30;99.90;;;;;;5076347;28;20685;-47
2022/08/02 09:19:19;;;;;;;5.57;2.10;;;27.40;99.90;;;;;;5075918;28;20187;-46
2022/08/02 09:21:45;;;;;;;4.03;2.00;;;27.40;99.90;;;;;;5075878;28;20195;-48
2022/08/02 09:24:21;;;;;;;4.47;1.97;;;27.50;99.90;;;;;;5076176;28;20271;-46
2022/08/02 09:26:49;;;;;;;2.60;2.03;;;27.70;99.90;;;;;;5076085;28;20674;-47
2022/08/02 09:29:17;;;;;;;3.10;1.80;;;27.70;99.90;;;;;;5075873;28;20573;-47
2022/08/02 09:31:43;;;;;;;3.77;1.70;;;27.80;99.90;;;;;;5075951;28;20198;-48
2022/08/02 09:34:09;;;;;;;3.37;1.77;;;28.00;99.90;;;;;;5075655;28;20240;-48
2022/08/02 09:36:42;;;;;;;2.47;1.30;;;28.20;99.90;;;;;;5075697;28;20187;-48
2022/08/02 09:39:13;;;;;;;3.33;1.40;;;28.20;99.90;;;;;;5075983;28;20179;-47
2022/08/02 09:41:41;;;;;;;2.00;1.73;;;28.30;99.90;;;;;;5075861;28;20282;-48
2022/08/02 09:44:12;;;;;;;3.70;1.80;;;28.30;99.90;;;;;;5075514;28;20592;-47
2022/08/02 09:46:39;;;;;;;2.90;1.60;;;28.30;99.90;;;;;;5074460;28;20204;-47
2022/08/02 09:49:06;;;;;;;1.90;1.40;;;28.50;99.90;;;;;;5074156;28;20176;-48
2022/08/02 09:51:35;;;;;;;2.00;1.50;;;28.70;99.90;;;;;;5075602;28;20211;-48
2022/08/02 09:54:05;;;;;;;2.43;1.67;;;28.70;99.90;;;;;;5075642;28;20176;-48
2022/08/02 09:56:47;;;;;;;4.83;1.50;;;28.70;99.90;;;;;;5075603;28;20250;-47
2022/08/02 09:59:14;;;;;;;4.50;1.67;;;28.70;99.90;;;;;;5075306;28;20642;-47
2022/08/02 10:01:41;;;;;;;3.85;1.30;;;28.70;99.90;;;;;;5075442;28;20204;-48
2022/08/02 10:04:10;;;;;;;4.85;1.90;;;28.70;99.90;;;;;;5075418;28;20221;-47
2022/08/02 10:06:38;;;;;;;1.77;1.60;;;28.80;99.90;;;;;;5075038;28;20686;-47
2022/08/02 10:09:07;;;;;;;6.57;1.60;;;28.80;99.90;;;;;;5073746;28;20175;-47
2022/08/02 10:11:34;;;;;;;5.57;1.50;;;28.90;99.90;;;;;;5074981;28;20735;-47
2022/08/02 10:14:02;;;;;;;2.58;1.33;;;29.00;99.90;;;;;;5075266;28;20180;-47
2022/08/02 10:16:28;;;;;;;2.08;1.52;;;29.20;99.90;;;;;;5073723;28;20328;-47
2022/08/02 10:19:00;;;;;;;3.72;1.42;;;29.20;99.90;;;;;;5075130;28;20184;-47
2022/08/02 10:22:02;;;;;;;2.35;1.65;;;29.10;99.90;;;;;;5074839;28;20188;-48
2022/08/02 10:24:30;;;;;;;1.75;1.45;;;29.10;99.90;;;;;;5075085;28;20171;-49
2022/08/02 10:26:58;;;;;;;1.85;1.40;;;29.00;99.90;;;;;;5073493;28;20203;-47
2022/08/02 10:29:32;;;;;;;3.00;1.40;;;29.00;99.90;;;;;;5074792;28;20577;-48
2022/08/02 10:32:09;;;;;;;4.35;1.40;;;29.00;99.90;;;;;;5074561;28;20624;-47
2022/08/02 10:34:52;;;;;;;1.77;1.42;;;29.10;99.90;;;;;;5074586;28;20615;-48
2022/08/02 10:37:20;;;;;;;1.95;1.30;;;29.20;99.90;;;;;;5074519;28;20172;-48
2022/08/02 10:39:45;;;;;;;2.67;1.33;;;29.40;99.90;;;;;;5074461;28;20206;-48
2022/08/02 10:42:32;;;;;;;1.42;1.33;;;29.40;99.90;;;;;;5074705;28;20210;-49
2022/08/02 10:45:09;;;;;;;5.25;1.85;;;29.50;99.90;;;;;;5074173;28;20233;-49
2022/08/02 10:47:35;;;;;;;4.13;1.67;;;29.40;99.90;;;;;;5074826;28;20179;-48
2022/08/02 10:50:02;;;;;;;2.90;1.70;;;29.50;99.90;;;;;;5074448;28;20282;-49
2022/08/02 10:52:29;;;;;;;3.97;1.60;;;29.60;99.90;;;;;;5074772;28;20172;-47
2022/08/02 10:54:58;;;;;;;4.13;1.92;;;29.50;99.90;;;;;;5074319;28;20202;-46
2022/08/02 10:57:29;;;;;;;2.78;1.55;;;29.50;99.90;;;;;;5074308;28;20175;-48
2022/08/02 11:00:01;;;;;;;2.25;1.30;;;29.40;99.90;;;;;;5074122;28;20207;-48
2022/08/02 11:02:45;;;;;;;2.90;1.75;;;29.40;99.90;;;;;;5074094;28;20708;-48
2022/08/02 11:05:17;;;;;;;2.03;1.42;;;29.40;99.90;;;;;;5074156;28;20186;-48
2022/08/02 11:07:42;;;;;;;5.68;1.60;;;29.40;99.90;;;;;;5074018;28;20190;-48
2022/08/02 11:10:29;;;;;;;1.42;1.33;;;29.40;99.90;;;;;;5073855;28;20204;-48
2022/08/02 11:13:13;;;;;;;3.72;1.60;;;29.40;99.90;;;;;;5074105;28;20535;-48
2022/08/02 11:16:03;;;;;;;2.78;1.38;;;29.50;99.90;;;;;;5074179;28;20207;-48
2022/08/02 11:18:50;;;;;;;1.58;1.48;;;29.60;99.90;;;;;;5073792;28;20694;-48
2022/08/02 11:21:27;;;;;;;6.25;1.70;;;30.00;99.90;;;;;;5073702;28;20283;-48
2022/08/02 11:23:54;;;;;;;3.60;1.70;;;29.90;99.90;;;;;;5073650;28;20187;-47
2022/08/02 11:26:31;;;;;;;1.27;1.17;;;29.90;99.90;;;;;;5073565;28;20210;-48
2022/08/02 11:29:01;;;;;;;2.17;1.50;;;30.00;99.90;;;;;;5073772;28;20172;-48
2022/08/02 11:31:27;;;;;;;3.97;1.55;;;30.20;99.90;;;;;;5073841;28;20195;-48
2022/08/02 11:33:53;;;;;;;2.40;1.73;;;30.30;99.90;;;;;;5073009;28;20194;-47
2022/08/02 11:36:19;;;;;;;2.65;1.88;;;30.40;99.90;;;;;;5072709;28;20171;-48
2022/08/02 11:38:45;;;;;;;2.05;1.60;;;30.40;99.90;;;;;;5072973;28;20180;-48
2022/08/02 11:41:21;;;;;;;1.55;1.38;;;30.40;99.90;;;;;;5072606;28;20249;-48
2022/08/02 11:43:53;;;;;;;2.33;1.30;;;30.40;99.90;;;;;;5071422;28;20193;-48
2022/08/02 11:46:19;;;;;;;3.75;1.58;;;30.40;99.90;;;;;;5072875;28;20646;-48
2022/08/02 11:48:45;;;;;;;4.50;1.63;;;30.40;99.90;;;;;;5072833;28;20175;-42
2022/08/02 11:51:15;;;;;;;2.50;1.77;;;30.50;99.90;;;;;;5072832;28;20219;-43
2022/08/02 11:53:52;;;;;;;1.55;1.45;;;30.50;99.90;;;;;;5072994;28;20207;-43
2022/08/02 11:56:28;;;;;;;2.50;1.80;;;30.40;99.90;;;;;;5072523;28;20254;-42
2022/08/02 11:59:07;;;;;;;4.00;2.65;;;30.40;99.90;;;;;;5072598;28;20171;-43
2022/08/02 12:01:38;;;;;;;3.72;1.73;;;30.30;99.90;;;;;;5072378;28;20197;-41
2022/08/02 12:04:05;;;;;;;5.88;1.83;;;30.30;99.90;;;;;;5072689;28;20172;-42
2022/08/02 12:06:32;;;;;;;2.67;1.90;;;30.30;99.90;;;;;;5072271;28;20195;-41
2022/08/02 12:09:12;;;;;;;2.17;1.85;;;30.20;99.90;;;;;;5072337;28;20190;-43
2022/08/02 12:11:38;;;;;;;1.95;1.70;;;30.20;99.90;;;;;;5075429;28;20210;-41
2022/08/02 12:14:05;;;;;;;2.53;1.92;;;30.20;99.90;;;;;;5075882;28;20631;-43
2022/08/02 12:19:22;;;;;;;4.57;1.92;;;30.20;99.90;;;;;;5076366;28;20175;-42
2022/08/02 12:22:05;;;;;;;2.35;1.65;;;30.40;99.90;;;;;;5075955;28;20207;-42
2022/08/02 12:24:31;;;;;;;3.67;1.95;;;30.50;99.90;;;;;;5076080;28;20567;-42
2022/08/02 12:26:56;;;;;;;2.95;1.60;;;30.60;99.90;;;;;;5075609;28;20244;-42
2022/08/02 12:29:30;;;;;;;3.10;1.60;;;30.60;99.90;;;;;;5075668;28;20168;-44
2022/08/02 12:31:56;;;;;;;4.43;1.63;;;30.70;99.90;;;;;;5075637;28;20179;-44
2022/08/02 12:34:23;;;;;;;3.80;1.50;;;30.70;99.90;;;;;;5039724;28;1064081;-44
2022/08/02 12:37:02;;;;;;;4.18;1.60;;;30.70;99.90;;;;;;5076866;28;20175;-43
2022/08/02 12:39:42;;;;;;;2.88;1.67;;;30.60;99.90;;;;;;5076854;28;20254;-43
2022/08/02 12:42:10;;;;;;;1.55;1.45;;;30.60;99.90;;;;;;5077082;28;20167;-42
2022/08/02 12:44:54;;;;;;;4.65;1.42;;;30.50;99.90;;;;;;5076897;28;20175;-42
2022/08/02 12:47:20;;;;;;;2.35;1.63;;;30.40;99.90;;;;;;5076862;28;20544;-43
2022/08/02 12:49:47;;;;;;;1.67;1.40;;;30.40;99.90;;;;;;5076852;28;20226;-41
2022/08/02 12:52:22;;;;;;;2.55;1.55;;;30.30;99.90;;;;;;5076830;28;20226;-42
2022/08/02 12:54:48;;;;;;;5.43;1.25;;;30.30;99.90;;;;;;5076512;28;20168;-42
2022/08/02 12:57:17;;;;;;;1.55;1.40;;;30.40;99.90;;;;;;5076457;28;20171;-43
2022/08/02 12:59:49;;;;;;;1.58;1.20;;;30.50;99.90;;;;;;5076537;28;20254;-42